Sacre-Coeur, Canada
Current Conditions -  °F | °C
As of 9:00 AM on Wednesday 28 Jan 2015 (Local Time) from CYYY Reporting Station
Broken Clouds Broken Clouds  
Wind Chill: -10°   Ceiling: 3000
Heat Index:   Visibility: 30mi
Dew Point:   Wind: 18mph
Humidity: 73%   Direction: 350°N
Pressure: 30.01"   Gusts: NA
Location:  48.43°N, 68.58°W
Report Text: CYYY 281400Z 35016KT 30SM BKN030 BKN100 M13/M17 A3001 RMK SC5AC2 SLP168
Loading
Personal Weather Stations






























Interactive Weather Map New forecast layout! Learn more

10-Day Weather Forecast

Advertisements
Track Severe Weather on mobile